Time;durP1;ratioP1;P1;durP2;ratioP2;P2;SDS_P1;SDS_P2;PMS_P1;PMS_P2;Temp;Humidity;BMP_temperature;BMP_pressure;BME280_temperature;BME280_humidity;BME280_pressure;Samples;Min_cycle;Max_cycle;Signal;HPM_P1;HPM_P2
2022/03/21 00:00:42;;;;;;;;;;;;;;;18.11;56.07;103018.63;5012830;28;1929;-38
2022/03/21 00:03:17;;;;;;;;;;;;;;;18.09;56.59;103016.84;5000180;28;1792;-37
2022/03/21 00:05:48;;;;;;;;;;;;;;;18.08;56.41;103017.81;5004079;28;1856;-37
2022/03/21 00:08:22;;;;;;;;;;;;;;;18.08;56.46;103019.59;5008725;28;1441;-37
2022/03/21 00:11:01;;;;;;;;;;;;;;;18.04;56.75;103010.00;5012736;28;1572;-37
2022/03/21 00:13:28;;;;;;;;;;;;;;;18.03;56.55;103005.59;5000141;28;1737;-37
2022/03/21 00:16:05;;;;;;;;;;;;;;;18.00;56.52;103005.72;5000804;28;1915;-38
2022/03/21 00:18:34;;;;;;;;;;;;;;;17.97;56.38;103012.09;5003165;28;1787;-38
2022/03/21 00:21:23;;;;;;;;;;;;;;;17.94;56.56;103012.25;5010182;28;1934;-38
2022/03/21 00:23:53;;;;;;;;;;;;;;;17.99;56.35;103020.94;4996472;28;1071;-38
2022/03/21 00:26:20;;;;;;;;;;;;;;;17.94;56.23;103006.03;5002990;28;1525;-37
2022/03/21 00:28:47;;;;;;;;;;;;;;;17.91;56.23;103000.84;5012891;28;1409;-38
2022/03/21 00:31:22;;;;;;;;;;;;;;;17.92;56.17;103015.94;5009649;28;1562;-38
2022/03/21 00:33:48;;;;;;;;;;;;;;;17.87;56.02;103011.69;5002832;28;1727;-38
2022/03/21 00:36:16;;;;;;;;;;;;;;;17.91;56.37;103012.41;5007043;28;1898;-38
2022/03/21 00:38:43;;;;;;;;;;;;;;;17.88;55.62;103005.38;5005503;28;1563;-37
2022/03/21 00:41:19;;;;;;;;;;;;;;;17.84;56.11;103000.25;5005244;28;1556;-37
2022/03/21 00:43:46;;;;;;;;;;;;;;;17.88;55.96;103007.19;5012566;28;1170;-37
2022/03/21 00:46:12;;;;;;;;;;;;;;;17.83;56.12;102996.72;5012468;28;1958;-38
2022/03/21 00:48:39;;;;;;;;;;;;;;;17.83;56.21;103007.41;5008976;28;1933;-37
2022/03/21 00:51:06;;;;;;;;;;;;;;;17.82;56.13;103005.63;5008850;28;1930;-38
2022/03/21 00:53:33;;;;;;;;;;;;;;;17.80;56.23;103004.84;5014547;28;1703;-40
2022/03/21 00:56:03;;;;;;;;;;;;;;;17.80;56.31;102998.63;5010061;28;1918;-38
2022/03/21 00:58:33;;;;;;;;;;;;;;;17.80;55.79;103002.16;4999202;28;1910;-37
2022/03/21 01:01:02;;;;;;;;;;;;;;;17.78;56.15;103009.41;5008926;28;1761;-37
2022/03/21 01:03:31;;;;;;;;;;;;;;;17.77;55.58;102998.78;4995574;28;1769;-38
2022/03/21 01:06:01;;;;;;;;;;;;;;;17.81;55.69;102990.53;5011797;28;1603;-38
2022/03/21 01:08:30;;;;;;;;;;;;;;;17.95;55.75;103010.44;4998263;28;1279;-38
2022/03/21 01:10:57;;;;;;;;;;;;;;;18.00;56.26;102995.03;5006278;28;1733;-38
2022/03/21 01:13:25;;;;;;;;;;;;;;;18.05;56.42;103003.72;5008573;28;1964;-38
2022/03/21 01:15:55;;;;;;;;;;;;;;;18.09;56.19;102997.25;5013123;28;1976;-38
2022/03/21 01:18:26;;;;;;;;;;;;;;;18.12;56.40;103005.13;5005841;28;1634;-38
2022/03/21 01:20:53;;;;;;;;;;;;;;;18.13;55.60;102995.31;5007256;28;1743;-38
2022/03/21 01:23:21;;;;;;;;;;;;;;;18.09;55.93;103000.78;4998620;28;1004;-38
2022/03/21 01:25:51;;;;;;;;;;;;;;;18.07;55.79;102989.28;5010458;28;1784;-37
2022/03/21 01:28:19;;;;;;;;;;;;;;;18.08;56.29;102992.84;5008226;28;1569;-38
2022/03/21 01:30:48;;;;;;;;;;;;;;;18.06;56.08;102989.34;4999581;28;1424;-37
2022/03/21 01:33:20;;;;;;;;;;;;;;;18.06;56.07;102990.25;5001193;28;1523;-38
2022/03/21 01:35:50;;;;;;;;;;;;;;;18.07;56.41;102985.75;5002299;28;2033;-38
2022/03/21 01:38:16;;;;;;;;;;;;;;;18.09;56.25;102981.19;5014685;28;1683;-37
2022/03/21 01:40:46;;;;;;;;;;;;;;;18.08;55.94;102990.16;5002285;28;1943;-37
2022/03/21 01:45:55;;;;;;;;;;;;;;;18.27;55.28;102990.13;5001937;28;2517;-37
2022/03/21 01:48:25;;;;;;;;;;;;;;;18.61;54.01;102980.38;5006581;28;2008;-37
2022/03/21 01:50:53;;;;;;;;;;;;;;;18.92;53.14;102968.97;5003574;28;1539;-37
2022/03/21 01:56:05;;;;;;;;;;;;;;;19.35;53.05;102977.34;4998919;28;1914;-37
2022/03/21 01:58:34;;;;;;;;;;;;;;;19.32;53.29;102969.50;4999849;28;1538;-37
2022/03/21 02:01:00;;;;;;;;;;;;;;;19.37;52.83;102969.22;5008435;28;1479;-37
2022/03/21 02:03:32;;;;;;;;;;;;;;;19.32;53.36;102966.81;5008817;28;1966;-38
2022/03/21 02:06:02;;;;;;;;;;;;;;;19.33;52.57;102962.31;5006470;28;1618;-37
2022/03/21 02:08:30;;;;;;;;;;;;;;;19.31;52.67;102975.78;5013805;28;1140;-37
2022/03/21 02:10:56;;;;;;;;;;;;;;;19.18;53.58;102969.34;5007917;28;1960;-37
2022/03/21 02:13:26;;;;;;;;;;;;;;;19.10;53.08;102961.75;5011296;28;1792;-37
2022/03/21 02:15:53;;;;;;;;;;;;;;;19.07;53.11;102981.53;5014313;28;1902;-37
2022/03/21 02:18:40;;;;;;;;;;;;;;;19.12;53.65;102981.31;5010293;28;1920;-38
2022/03/21 02:21:18;;;;;;;;;;;;;;;19.01;53.01;102978.31;4995769;28;2001;-37
2022/03/21 02:23:50;;;;;;;;;;;;;;;18.93;53.91;102959.97;4995575;28;1552;-37
2022/03/21 02:26:23;;;;;;;;;;;;;;;18.83;54.00;102969.44;5011381;28;1496;-38
2022/03/21 02:28:51;;;;;;;;;;;;;;;18.77;53.90;102981.31;5006985;28;1133;-37
2022/03/21 02:34:01;;;;;;;;;;;;;;;18.66;53.77;102968.47;4999466;28;2247;-38
2022/03/21 02:36:29;;;;;;;;;;;;;;;18.71;54.04;102986.13;5007192;28;1987;-38
2022/03/21 02:38:56;;;;;;;;;;;;;;;18.62;54.37;102974.06;5009216;28;1727;-37
2022/03/21 02:41:31;;;;;;;;;;;;;;;18.56;54.13;102977.94;5000023;28;1377;-37
2022/03/21 02:44:18;;;;;;;;;;;;;;;18.49;54.40;102971.16;4995564;28;1445;-37
2022/03/21 02:46:54;;;;;;;;;;;;;;;18.39;54.75;102968.06;5011427;28;1779;-38
2022/03/21 02:49:21;;;;;;;;;;;;;;;18.32;54.32;102974.69;4999022;28;1691;-38
2022/03/21 02:51:50;;;;;;;;;;;;;;;18.27;54.85;102966.03;5009013;28;1468;-37
2022/03/21 02:54:19;;;;;;;;;;;;;;;18.25;53.82;102974.13;5008945;28;1728;-38
2022/03/21 02:56:51;;;;;;;;;;;;;;;18.22;53.45;102979.66;4996643;28;1983;-37
2022/03/21 02:59:20;;;;;;;;;;;;;;;18.22;53.61;102976.09;4998794;28;1841;-37
2022/03/21 03:01:51;;;;;;;;;;;;;;;18.18;53.92;102978.03;5106378;23;3958;-39
2022/03/21 03:04:17;;;;;;;;;;;;;;;18.13;54.57;102969.38;5004080;28;1385;-39
2022/03/21 03:06:46;;;;;;;;;;;;;;;18.13;54.09;102990.81;5005228;28;1593;-38
2022/03/21 03:09:21;;;;;;;;;;;;;;;18.09;53.52;102974.03;5004761;28;1609;-38
2022/03/21 03:12:01;;;;;;;;;;;;;;;18.06;53.23;102978.66;5012105;28;1388;-38
2022/03/21 03:14:27;;;;;;;;;;;;;;;18.03;53.78;102981.50;5004167;28;1624;-38
2022/03/21 03:17:02;;;;;;;;;;;;;;;18.03;53.61;102984.19;5016087;28;1997;-39
2022/03/21 03:19:37;;;;;;;;;;;;;;;17.96;53.34;102988.09;5009889;28;1624;-38
2022/03/21 03:22:05;;;;;;;;;;;;;;;17.97;53.18;102984.47;5003399;28;1879;-39
2022/03/21 03:24:32;;;;;;;;;;;;;;;17.91;53.82;102990.13;5016862;28;1205;-38
2022/03/21 03:27:03;;;;;;;;;;;;;;;17.92;53.93;102998.06;5004286;28;1752;-39
2022/03/21 03:29:30;;;;;;;;;;;;;;;17.87;54.06;102990.25;5005488;28;1577;-39
2022/03/21 03:34:45;;;;;;;;;;;;;;;17.81;53.87;102990.53;5005086;28;2578;-39
2022/03/21 03:37:15;;;;;;;;;;;;;;;17.84;53.96;102993.06;5001505;28;1899;-39
2022/03/21 03:39:45;;;;;;;;;;;;;;;17.81;53.22;102979.81;5013279;28;1650;-39
2022/03/21 03:42:13;;;;;;;;;;;;;;;17.80;53.69;102991.44;5001497;28;1761;-39
2022/03/21 03:44:43;;;;;;;;;;;;;;;17.79;53.76;102994.22;5006941;28;1571;-39
2022/03/21 03:47:13;;;;;;;;;;;;;;;17.77;53.83;102998.78;5014808;28;1998;-38
2022/03/21 03:49:43;;;;;;;;;;;;;;;17.76;53.80;102987.19;4999482;28;1580;-38
2022/03/21 03:52:10;;;;;;;;;;;;;;;17.74;53.53;102980.19;4996704;28;1095;-39
2022/03/21 03:54:40;;;;;;;;;;;;;;;17.75;53.11;102973.91;4996561;28;1748;-39
2022/03/21 03:57:10;;;;;;;;;;;;;;;17.75;53.54;102992.63;5012273;28;1902;-39
2022/03/21 03:59:42;;;;;;;;;;;;;;;18.05;54.59;102987.66;5008777;28;1698;-38
2022/03/21 04:02:10;;;;;;;;;;;;;;;18.51;53.67;102989.84;5011560;28;1473;-38
2022/03/21 04:04:38;;;;;;;;;;;;;;;18.59;53.66;102977.78;5006080;28;1741;-39
2022/03/21 04:07:06;;;;;;;;;;;;;;;18.67;53.06;102977.38;5005906;28;1081;-39
2022/03/21 04:09:34;;;;;;;;;;;;;;;18.78;53.08;102982.16;5000657;28;1766;-38
2022/03/21 04:12:02;;;;;;;;;;;;;;;18.80;52.50;102969.59;4998694;28;1826;-38
2022/03/21 04:14:33;;;;;;;;;;;;;;;18.86;52.24;102974.63;5011676;28;1410;-38
2022/03/21 04:17:05;;;;;;;;;;;;;;;18.86;52.42;102980.88;5002494;28;1887;-39
2022/03/21 04:19:34;;;;;;;;;;;;;;;18.82;52.28;102999.84;5011505;28;1843;-38
2022/03/21 04:22:04;;;;;;;;;;;;;;;18.74;52.75;102988.63;5006001;28;1811;-38
2022/03/21 04:24:31;;;;;;;;;;;;;;;18.71;53.17;102999.53;5015957;28;1044;-38
2022/03/21 04:27:02;;;;;;;;;;;;;;;18.67;52.97;102991.63;4998125;28;2019;-39
2022/03/21 04:29:31;;;;;;;;;;;;;;;18.61;52.88;102994.63;5011349;28;1685;-38
2022/03/21 04:32:01;;;;;;;;;;;;;;;18.56;52.86;102988.66;4999482;28;1668;-38
2022/03/21 04:34:33;;;;;;;;;;;;;;;18.56;52.95;102988.66;5006784;28;1740;-38
2022/03/21 04:37:00;;;;;;;;;;;;;;;18.52;53.15;102995.09;5006034;28;2019;-38
2022/03/21 04:39:30;;;;;;;;;;;;;;;18.45;52.83;103002.59;5010408;28;1537;-38
2022/03/21 04:42:01;;;;;;;;;;;;;;;18.40;53.30;103007.31;5008803;28;1555;-39
2022/03/21 04:44:28;;;;;;;;;;;;;;;18.35;53.62;103016.53;4997006;28;1767;-39
2022/03/21 04:46:57;;;;;;;;;;;;;;;18.28;53.27;103011.47;5013462;28;1449;-38
2022/03/21 04:49:24;;;;;;;;;;;;;;;18.29;53.13;103015.88;4995748;28;1825;-39
2022/03/21 04:51:54;;;;;;;;;;;;;;;18.20;53.57;103010.97;5004362;28;998;-39
2022/03/21 04:54:20;;;;;;;;;;;;;;;18.18;53.81;103003.97;5013206;28;1799;-39
2022/03/21 04:56:47;;;;;;;;;;;;;;;18.15;53.40;103026.41;5010574;28;2145;-39
2022/03/21 04:59:16;;;;;;;;;;;;;;;18.25;52.99;103006.25;4995302;28;1387;-38
2022/03/21 05:01:42;;;;;;;;;;;;;;;18.36;52.49;103015.56;5003659;28;1538;-38
2022/03/21 05:04:10;;;;;;;;;;;;;;;18.35;52.69;103021.88;4999514;28;1091;-39
2022/03/21 05:06:39;;;;;;;;;;;;;;;18.38;52.90;103022.63;4998716;28;2045;-39
2022/03/21 05:09:14;;;;;;;;;;;;;;;18.35;53.05;103021.88;4998390;28;1976;-39
2022/03/21 05:11:42;;;;;;;;;;;;;;;18.32;52.72;103027.38;5000307;28;1773;-38
2022/03/21 05:14:10;;;;;;;;;;;;;;;18.31;53.24;103023.84;5000000;28;1349;-39
2022/03/21 05:16:38;;;;;;;;;;;;;;;18.27;52.82;103017.78;5008372;28;1903;-38
2022/03/21 05:19:07;;;;;;;;;;;;;;;18.24;53.01;103017.94;5003197;28;1157;-39
2022/03/21 05:21:34;;;;;;;;;;;;;;;18.27;52.16;103020.44;5010780;28;2000;-39
2022/03/21 05:32:18;;;;;;;;;;;;;;;18.44;53.13;103024.97;4988167;28;1676;-38
2022/03/21 05:37:32;;;;;;;;;;;;;;;18.53;53.00;103033.50;4977547;28;1914;-38
2022/03/21 05:42:50;;;;;;;;;;;;;;;18.42;53.71;103034.91;4983446;28;1492;-38
2022/03/21 05:45:20;;;;;;;;;;;;;;;18.53;53.49;103030.81;4983934;28;1654;-38
2022/03/21 05:50:50;;;;;;;;;;;;;;;18.54;54.12;103028.03;4973399;28;10905;-38
2022/03/21 05:53:22;;;;;;;;;;;;;;;18.57;53.31;103035.94;5014104;28;1505;-38
2022/03/21 05:55:48;;;;;;;;;;;;;;;18.59;54.96;103041.22;5007761;28;1823;-38
2022/03/21 05:58:18;;;;;;;;;;;;;;;18.65;56.40;103028.38;5007107;28;1906;-38
2022/03/21 06:00:46;;;;;;;;;;;;;;;18.65;56.50;103024.84;5006924;28;1633;-39
2022/03/21 06:03:15;;;;;;;;;;;;;;;18.70;55.99;103017.41;5011000;28;2081;-38
2022/03/21 06:05:46;;;;;;;;;;;;;;;18.74;55.17;103018.13;5006830;28;1470;-37
2022/03/21 06:08:13;;;;;;;;;;;;;;;18.73;55.13;103016.41;5014297;28;1501;-37
2022/03/21 06:10:39;;;;;;;;;;;;;;;18.77;56.32;103007.25;4999163;28;1972;-38
2022/03/21 06:13:06;;;;;;;;;;;;;;;18.82;57.50;103016.84;5001798;28;1963;-38
2022/03/21 06:15:39;;;;;;;;;;;;;;;18.86;56.46;103012.16;5005520;28;1744;-38
2022/03/21 06:18:11;;;;;;;;;;;;;;;19.08;57.14;102996.69;5009341;28;1910;-38
2022/03/21 06:20:50;;;;;;;;;;;;;;;19.05;55.44;103029.03;4995372;28;1867;-37
2022/03/21 06:23:18;;;;;;;;;;;;;;;19.05;55.92;103007.56;5003337;28;1493;-37
2022/03/21 06:25:47;;;;;;;;;;;;;;;19.08;55.02;103017.28;5002816;28;1872;-40
2022/03/21 06:28:16;;;;;;;;;;;;;;;19.00;55.59;103006.97;5009374;28;1858;-37
2022/03/21 06:30:44;;;;;;;;;;;;;;;19.01;55.76;103019.41;5006774;28;1610;-39
2022/03/21 06:33:14;;;;;;;;;;;;;;;19.05;55.56;103020.13;5005936;28;1603;-37
2022/03/21 06:35:44;;;;;;;;;;;;;;;19.05;56.01;103012.94;4999899;28;1594;-38
2022/03/21 06:38:12;;;;;;;;;;;;;;;19.12;54.92;103023.31;5007203;28;1983;-37
2022/03/21 06:40:38;;;;;;;;;;;;;;;19.17;55.06;103026.66;5005136;28;1861;-38
2022/03/21 06:43:08;;;;;;;;;;;;;;;19.22;55.63;103019.22;5006033;28;1548;-39
2022/03/21 06:45:35;;;;;;;;;;;;;;;19.20;55.70;103021.09;5006023;28;1625;-38
2022/03/21 06:48:07;;;;;;;;;;;;;;;19.24;55.52;103028.06;5014952;28;1419;-38
2022/03/21 06:50:34;;;;;;;;;;;;;;;19.19;55.68;103017.56;5015692;28;1683;-38
2022/03/21 06:53:00;;;;;;;;;;;;;;;19.12;56.38;103020.66;5017311;28;1353;-38
2022/03/21 06:55:30;;;;;;;;;;;;;;;19.13;55.59;103019.72;5015863;28;1894;-38
2022/03/21 06:58:01;;;;;;;;;;;;;;;19.02;56.14;103018.47;5014258;28;1906;-37
2022/03/21 07:00:30;;;;;;;;;;;;;;;19.12;56.63;103013.50;5011942;28;1555;-38
2022/03/21 07:03:00;;;;;;;;;;;;;;;19.08;56.84;103019.97;5013602;28;1585;-38
2022/03/21 07:05:30;;;;;;;;;;;;;;;19.02;56.15;103017.56;5005230;28;1278;-37
2022/03/21 07:08:00;;;;;;;;;;;;;;;19.03;56.77;103020.19;5017081;28;1619;-38
2022/03/21 07:10:28;;;;;;;;;;;;;;;19.01;56.88;103026.59;5015198;28;1794;-38
2022/03/21 07:12:57;;;;;;;;;;;;;;;18.98;56.25;103011.53;5010098;28;1368;-38
2022/03/21 07:15:25;;;;;;;;;;;;;;;19.04;56.38;103018.41;5013338;28;1483;-38
2022/03/21 07:17:59;;;;;;;;;;;;;;;19.08;57.31;103028.88;5007417;28;1981;-38
2022/03/21 07:20:30;;;;;;;;;;;;;;;19.05;57.11;103023.66;5011905;28;1522;-38
2022/03/21 07:23:06;;;;;;;;;;;;;;;19.08;56.34;103012.78;5013291;28;1665;-38
2022/03/21 07:25:32;;;;;;;;;;;;;;;19.06;56.57;103019.19;5012226;28;1618;-38
2022/03/21 07:27:59;;;;;;;;;;;;;;;19.07;56.48;103021.75;5006608;28;1401;-38
2022/03/21 07:30:28;;;;;;;;;;;;;;;19.05;56.67;103007.56;5012652;28;1353;-38
2022/03/21 07:32:59;;;;;;;;;;;;;;;18.96;56.39;103013.44;5013363;28;1557;-37
2022/03/21 07:35:31;;;;;;;;;;;;;;;18.97;56.54;103015.16;5003700;28;1583;-38
2022/03/21 07:37:59;;;;;;;;;;;;;;;19.03;56.31;103003.25;5013428;28;1902;-39
2022/03/21 07:40:26;;;;;;;;;;;;;;;19.01;56.25;103006.00;5013384;28;1721;-39
2022/03/21 07:42:54;;;;;;;;;;;;;;;19.02;56.42;103013.09;5009485;28;1377;-38
2022/03/21 07:48:06;;;;;;;;;;;;;;;19.05;57.12;103006.69;5006833;28;1558;-38
2022/03/21 07:50:35;;;;;;;;;;;;;;;19.08;57.28;102994.00;5009477;28;1539;-38
2022/03/21 07:53:06;;;;;;;;;;;;;;;19.02;56.38;103001.50;5016640;28;1063;-39
2022/03/21 07:55:35;;;;;;;;;;;;;;;19.10;57.06;103014.50;5003541;28;1784;-38
2022/03/21 07:58:03;;;;;;;;;;;;;;;19.13;57.12;103003.63;5015296;28;1977;-38
2022/03/21 08:00:31;;;;;;;;;;;;;;;19.12;57.21;102996.50;5011547;28;1547;-38
2022/03/21 08:03:03;;;;;;;;;;;;;;;19.16;56.85;103006.13;5000565;28;2015;-38
2022/03/21 08:05:29;;;;;;;;;;;;;;;19.06;57.38;102992.38;5005203;28;1308;-38
2022/03/21 08:07:56;;;;;;;;;;;;;;;19.18;57.43;102991.69;5015522;28;1556;-38
2022/03/21 08:10:27;;;;;;;;;;;;;;;19.16;57.13;102985.56;5009582;28;1617;-38
2022/03/21 08:12:56;;;;;;;;;;;;;;;19.11;55.99;102994.78;5011478;28;1532;-38
2022/03/21 08:15:24;;;;;;;;;;;;;;;18.99;55.85;102996.31;5008596;28;1661;-38
2022/03/21 08:17:52;;;;;;;;;;;;;;;18.95;56.45;102987.56;5014141;28;1906;-37
2022/03/21 08:20:19;;;;;;;;;;;;;;;19.04;56.12;103002.31;5003007;28;1867;-38
2022/03/21 08:22:48;;;;;;;;;;;;;;;18.99;56.63;102997.16;5007294;28;1085;-39
2022/03/21 08:25:16;;;;;;;;;;;;;;;18.95;56.80;103006.31;5002448;28;2046;-38
2022/03/21 08:27:47;;;;;;;;;;;;;;;18.88;57.54;102994.22;5000549;28;2046;-39
2022/03/21 08:30:23;;;;;;;;;;;;;;;18.82;57.37;102983.78;4995926;28;1317;-38
2022/03/21 08:32:50;;;;;;;;;;;;;;;18.82;57.72;102981.09;5002613;28;1788;-38
2022/03/21 08:35:26;;;;;;;;;;;;;;;18.82;57.87;102989.13;5014671;28;1748;-38
2022/03/21 08:37:56;;;;;;;;;;;;;;;18.76;57.93;102978.69;5007117;28;1977;-38
2022/03/21 08:40:23;;;;;;;;;;;;;;;18.74;57.28;102970.78;5006209;28;2066;-38
2022/03/21 08:42:55;;;;;;;;;;;;;;;18.77;57.51;102977.78;5000787;28;1748;-38
2022/03/21 08:45:22;;;;;;;;;;;;;;;18.81;57.44;102982.06;5008696;28;1983;-38
2022/03/21 08:47:50;;;;;;;;;;;;;;;18.73;58.16;102970.84;5001149;28;2015;-38
2022/03/21 08:50:26;;;;;;;;;;;;;;;18.71;58.01;102957.50;5004185;28;1536;-39
2022/03/21 08:55:34;;;;;;;;;;;;;;;18.73;58.36;102962.78;5006755;28;2375;-38
2022/03/21 08:58:04;;;;;;;;;;;;;;;18.74;58.11;102964.50;5009350;28;1989;-38
2022/03/21 09:00:33;;;;;;;;;;;;;;;18.90;55.88;102960.13;5007980;28;1689;-38
2022/03/21 09:03:00;;;;;;;;;;;;;;;19.02;57.27;102946.06;5008526;28;1649;-38
2022/03/21 09:05:26;;;;;;;;;;;;;;;19.09;56.27;102965.38;5005005;28;1852;-38
2022/03/21 09:08:02;;;;;;;;;;;;;;;18.98;56.60;102957.91;5006377;28;1493;-39
2022/03/21 09:10:29;;;;;;;;;;;;;;;19.08;57.54;102959.16;5009732;28;1446;-37
2022/03/21 09:12:59;;;;;;;;;;;;;;;18.99;57.98;102954.25;5010763;28;1602;-37
2022/03/21 09:15:32;;;;;;;;;;;;;;;19.15;57.37;102948.09;5007599;28;1581;-39
2022/03/21 09:18:02;;;;;;;;;;;;;;;19.04;57.77;102954.03;5006636;28;1910;-38
2022/03/21 09:20:30;;;;;;;;;;;;;;;19.12;58.24;102948.22;5000321;28;1600;-37
2022/03/21 09:22:57;;;;;;;;;;;;;;;19.22;57.41;102954.84;5002496;28;1133;-38
2022/03/21 09:25:26;;;;;;;;;;;;;;;19.21;57.13;102947.75;4994884;28;1987;-37
2022/03/21 09:27:56;;;;;;;;;;;;;;;19.27;57.61;102942.91;5002203;28;1460;-38
2022/03/21 09:30:23;;;;;;;;;;;;;;;19.36;57.18;102952.28;5007494;28;1355;-38
2022/03/21 09:32:53;;;;;;;;;;;;;;;19.48;57.56;102962.31;5007389;28;1225;-38
2022/03/21 09:35:24;;;;;;;;;;;;;;;19.55;57.85;102956.63;5011372;28;2015;-37
2022/03/21 09:37:51;;;;;;;;;;;;;;;19.54;58.85;102944.16;5014689;28;1977;-37
2022/03/21 09:43:10;;;;;;;;;;;;;;;19.63;58.92;102939.13;5005483;28;2566;-38
2022/03/21 09:45:44;;;;;;;;;;;;;;;19.56;58.85;102936.88;5004675;28;2066;-37
2022/03/21 09:48:17;;;;;;;;;;;;;;;19.56;58.57;102947.63;4999732;28;1262;-37
2022/03/21 09:50:45;;;;;;;;;;;;;;;19.48;59.53;102938.16;4996982;28;1936;-37
2022/03/21 09:53:17;;;;;;;;;;;;;;;19.47;59.88;102949.84;5009073;28;1231;-37
2022/03/21 09:55:45;;;;;;;;;;;;;;;19.63;61.11;102938.25;5013947;28;1398;-38
2022/03/21 09:58:13;;;;;;;;;;;;;;;19.60;60.85;102933.06;5008576;28;1902;-37
2022/03/21 10:00:40;;;;;;;;;;;;;;;19.68;60.82;102931.69;5009622;28;1835;-37
2022/03/21 10:03:10;;;;;;;;;;;;;;;19.59;61.81;102934.88;5000335;28;1888;-38
2022/03/21 10:05:42;;;;;;;;;;;;;;;19.55;62.04;102919.03;5003147;28;1465;-37
2022/03/21 10:08:16;;;;;;;;;;;;;;;19.43;60.58;102934.88;5014419;28;1064;-37
2022/03/21 10:10:51;;;;;;;;;;;;;;;19.43;60.51;102923.28;5010742;28;2004;-38
2022/03/21 10:13:18;;;;;;;;;;;;;;;19.44;61.05;102922.34;5011407;28;1567;-37
2022/03/21 10:15:47;;;;;;;;;;;;;;;19.36;61.08;102927.25;5004677;28;1382;-37
2022/03/21 10:18:15;;;;;;;;;;;;;;;19.16;57.82;102917.63;5013442;28;1902;-37
2022/03/21 10:20:47;;;;;;;;;;;;;;;19.24;57.81;102918.09;5009905;28;1318;-36
2022/03/21 10:23:18;;;;;;;;;;;;;;;19.24;58.88;102899.31;5003221;28;1138;-37
2022/03/21 10:25:44;;;;;;;;;;;;;;;19.07;58.30;102893.03;5001671;28;1279;-38
2022/03/21 10:28:11;;;;;;;;;;;;;;;19.01;59.75;102896.06;5008309;28;1415;-37
2022/03/21 10:30:45;;;;;;;;;;;;;;;19.00;58.47;102894.34;5009267;28;1240;-37
2022/03/21 10:33:30;;;;;;;;;;;;;;;19.03;59.05;102887.94;5008635;28;1221;-38
2022/03/21 10:36:17;;;;;;;;;;;;;;;19.01;58.86;102871.94;4999024;28;1775;-36
2022/03/21 10:38:48;;;;;;;;;;;;;;;19.00;60.07;102877.38;5007530;28;1910;-37
2022/03/21 10:41:14;;;;;;;;;;;;;;;18.96;59.97;102855.25;5003124;28;1532;-37
2022/03/21 10:43:54;;;;;;;;;;;;;;;18.99;59.08;102881.88;5006004;28;1988;-36
2022/03/21 10:46:22;;;;;;;;;;;;;;;18.97;59.22;102881.09;4998061;28;1611;-37
2022/03/21 10:49:03;;;;;;;;;;;;;;;18.93;59.48;102860.75;5006738;28;1780;-36
2022/03/21 10:51:46;;;;;;;;;;;;;;;18.86;59.75;102862.91;5008022;28;1379;-37
2022/03/21 10:54:35;;;;;;;;;;;;;;;18.89;59.59;102867.25;5009109;28;1969;-37
2022/03/21 10:57:02;;;;;;;;;;;;;;;18.86;59.65;102840.59;5008284;28;1699;-37
2022/03/21 10:59:33;;;;;;;;;;;;;;;18.93;58.63;102844.66;5010555;28;1906;-37
2022/03/21 11:02:13;;;;;;;;;;;;;;;18.91;58.62;102818.91;4998374;28;2066;-37
2022/03/21 11:04:45;;;;;;;;;;;;;;;18.90;58.56;102843.97;5004395;28;1445;-37
2022/03/21 11:07:18;;;;;;;;;;;;;;;18.90;59.71;102825.19;5008091;28;1271;-37
2022/03/21 11:09:50;;;;;;;;;;;;;;;18.80;59.60;102836.44;5009892;28;1636;-37
2022/03/21 11:12:19;;;;;;;;;;;;;;;18.79;59.34;102815.94;5008122;28;1346;-36
2022/03/21 11:14:45;;;;;;;;;;;;;;;18.72;59.81;102825.25;5011215;28;1757;-37
2022/03/21 11:17:12;;;;;;;;;;;;;;;18.77;59.33;102811.59;5002866;28;1260;-37
2022/03/21 11:19:46;;;;;;;;;;;;;;;18.74;59.41;102809.94;5011564;28;1895;-37
2022/03/21 11:22:13;;;;;;;;;;;;;;;18.71;59.40;102798.53;5004935;28;1355;-37
2022/03/21 11:24:43;;;;;;;;;;;;;;;18.72;60.09;102786.84;4999759;28;1724;-38
2022/03/21 11:27:22;;;;;;;;;;;;;;;18.72;59.77;102779.69;5007080;28;1513;-37
2022/03/21 11:29:58;;;;;;;;;;;;;;;18.75;60.05;102792.06;5002670;28;1595;-37
2022/03/21 11:32:30;;;;;;;;;;;;;;;18.80;63.41;102788.19;5014060;28;1709;-37
2022/03/21 11:35:03;;;;;;;;;;;;;;;18.90;64.68;102766.22;5007917;28;942;-38
2022/03/21 11:37:31;;;;;;;;;;;;;;;18.95;66.87;102773.06;5013384;28;1488;-37
2022/03/21 11:40:20;;;;;;;;;;;;;;;18.97;69.15;102751.53;5009457;28;1906;-38
2022/03/21 11:42:53;;;;;;;;;;;;;;;18.91;73.39;102763.47;5004411;28;1307;-37
2022/03/21 11:45:27;;;;;;;;;;;;;;;18.90;72.29;102756.38;5003789;28;1630;-37
2022/03/21 11:48:09;;;;;;;;;;;;;;;18.77;70.96;102756.16;5014793;28;1358;-37
2022/03/21 11:50:38;;;;;;;;;;;;;;;18.65;69.55;102740.78;5008211;28;1893;-37
2022/03/21 11:53:06;;;;;;;;;;;;;;;18.65;68.72;102741.63;5016562;28;1546;-37
2022/03/21 11:55:38;;;;;;;;;;;;;;;18.68;68.44;102744.16;5010530;28;1605;-37
2022/03/21 11:58:36;;;;;;;;;;;;;;;18.69;67.84;102747.69;5014463;28;1910;-37
2022/03/21 12:01:20;;;;;;;;;;;;;;;18.72;66.80;102746.63;4998560;28;1559;-37
2022/03/21 12:03:50;;;;;;;;;;;;;;;18.67;67.23;102733.50;4998839;28;1349;-37
2022/03/21 12:06:24;;;;;;;;;;;;;;;18.63;67.03;102748.03;5003886;28;1662;-37
2022/03/21 12:09:02;;;;;;;;;;;;;;;18.60;67.51;102732.09;5010843;28;1721;-37
2022/03/21 12:11:51;;;;;;;;;;;;;;;18.54;67.18;102717.22;5012996;28;1566;-37
2022/03/21 12:14:45;;;;;;;;;;;;;;;18.50;67.23;102723.72;5008562;28;1482;-37
2022/03/21 12:17:29;;;;;;;;;;;;;;;18.50;66.79;102710.31;4999443;28;1639;-37
2022/03/21 12:20:08;;;;;;;;;;;;;;;18.48;65.38;102713.09;5013160;28;1906;-37
2022/03/21 12:23:00;;;;;;;;;;;;;;;18.55;62.68;102718.97;5014315;28;1556;-37
2022/03/21 12:25:41;;;;;;;;;;;;;;;19.14;60.68;102700.50;5011895;28;1783;-37
2022/03/21 12:31:35;;;;;;;;;;;;;;;19.94;57.31;102721.72;4990138;28;1596;-37
2022/03/21 12:34:21;;;;;;;;;;;;;;;19.60;58.93;102683.47;5010100;28;1762;-37
2022/03/21 12:36:51;;;;;;;;;;;;;;;19.23;59.76;102707.13;5001238;28;1924;-37
2022/03/21 12:39:19;;;;;;;;;;;;;;;19.10;59.39;102690.00;5005943;28;1915;-37
2022/03/21 12:41:47;;;;;;;;;;;;;;;19.00;58.92;102695.03;4998258;28;1375;-36
2022/03/21 12:44:16;;;;;;;;;;;;;;;18.98;60.73;102689.78;4999544;28;1385;-37
2022/03/21 12:46:44;;;;;;;;;;;;;;;18.93;60.90;102681.13;5003060;28;1651;-37
2022/03/21 12:49:14;;;;;;;;;;;;;;;18.94;61.47;102692.72;4999919;28;1467;-37
2022/03/21 12:51:44;;;;;;;;;;;;;;;18.97;60.67;102681.81;5011386;28;2007;-37
2022/03/21 12:54:19;;;;;;;;;;;;;;;18.88;61.11;102673.38;5010586;28;1627;-37
2022/03/21 12:56:46;;;;;;;;;;;;;;;18.90;61.12;102686.69;5012869;28;1706;-35
2022/03/21 12:59:16;;;;;;;;;;;;;;;18.91;59.90;102691.09;5011940;28;1906;-37
2022/03/21 13:01:44;;;;;;;;;;;;;;;18.91;60.70;102684.88;5013091;28;1524;-37
2022/03/21 13:12:36;;;;;;;;;;;;;;;18.69;61.18;102665.47;5001462;28;1669;-37
2022/03/21 13:15:04;;;;;;;;;;;;;;;18.69;61.73;102670.81;5008404;28;1358;-37
2022/03/21 13:17:49;;;;;;;;;;;;;;;18.76;61.34;102667.78;5007115;28;1591;-37
2022/03/21 13:20:19;;;;;;;;;;;;;;;18.74;61.87;102669.69;5007391;28;1906;-36
2022/03/21 13:22:49;;;;;;;;;;;;;;;18.74;61.93;102657.19;5014330;28;1664;-37
2022/03/21 13:25:27;;;;;;;;;;;;;;;18.66;61.99;102644.22;5009768;28;1576;-37
2022/03/21 13:28:05;;;;;;;;;;;;;;;18.60;61.10;102647.25;5010923;28;1559;-37
2022/03/21 13:30:33;;;;;;;;;;;;;;;18.56;60.72;102655.53;5006530;28;1720;-37
2022/03/21 13:33:00;;;;;;;;;;;;;;;18.56;60.44;102651.06;5013519;28;1823;-37
2022/03/21 13:35:39;;;;;;;;;;;;;;;18.66;59.25;102636.19;5001460;28;1102;-37
2022/03/21 13:38:06;;;;;;;;;;;;;;;18.72;58.93;102637.66;5008023;28;1138;-37
2022/03/21 13:40:45;;;;;;;;;;;;;;;18.78;58.94;102645.34;5001696;28;2030;-37
2022/03/21 13:43:17;;;;;;;;;;;;;;;18.87;59.02;102650.19;4998777;28;1301;-37
2022/03/21 13:45:44;;;;;;;;;;;;;;;18.88;58.64;102634.97;5005536;28;1966;-37
2022/03/21 13:48:10;;;;;;;;;;;;;;;18.90;57.87;102633.06;5003273;28;1828;-37
2022/03/21 13:50:41;;;;;;;;;;;;;;;18.93;59.07;102630.19;5005464;28;1738;-37
2022/03/21 13:53:29;;;;;;;;;;;;;;;18.97;57.72;102623.69;4994427;28;1136;-37